createdAt,value
2019-03-18T00:00:01.960Z,0
2019-03-18T00:01:02.762Z,0
2019-03-18T00:02:02.508Z,0
2019-03-18T00:03:02.340Z,0
2019-03-18T00:04:02.286Z,0
2019-03-18T00:05:02.053Z,0
2019-03-18T00:06:02.376Z,0
2019-03-18T00:07:02.604Z,0
2019-03-18T00:08:02.885Z,0
2019-03-18T00:09:02.635Z,0
2019-03-18T00:10:02.720Z,0
2019-03-18T00:11:02.417Z,0
2019-03-18T00:12:02.695Z,0
2019-03-18T00:13:03.326Z,0
2019-03-18T00:14:02.461Z,0
2019-03-18T00:15:10.478Z,0
2019-03-18T00:16:02.495Z,0
2019-03-18T00:17:02.511Z,0
2019-03-18T00:18:02.796Z,0
2019-03-18T00:19:03.077Z,0
2019-03-18T00:20:02.864Z,0
2019-03-18T00:21:02.587Z,0
2019-03-18T00:22:02.870Z,0
2019-03-18T00:23:02.359Z,0
2019-03-18T00:24:02.379Z,0
2019-03-18T00:25:02.920Z,0
2019-03-18T00:26:02.680Z,0
2019-03-18T00:27:03.214Z,0
2019-03-18T00:28:03.241Z,0
2019-03-18T00:29:02.998Z,0
2019-03-18T00:30:02.790Z,0
2019-03-18T00:31:02.756Z,0
2019-03-18T00:32:02.784Z,0
2019-03-18T00:33:05.472Z,0
2019-03-18T00:34:03.340Z,0
2019-03-18T00:35:03.383Z,0
2019-03-18T00:36:03.380Z,0
2019-03-18T00:37:03.150Z,0
2019-03-18T00:38:03.155Z,0
2019-03-18T00:39:02.898Z,0
2019-03-18T00:40:03.207Z,0
2019-03-18T00:41:03.206Z,0
2019-03-18T00:42:03.517Z,0
2019-03-18T00:43:03.246Z,0
2019-03-18T00:44:03.253Z,0
2019-03-18T00:45:16.681Z,0
2019-03-18T00:46:03.570Z,0
2019-03-18T00:47:03.302Z,0
2019-03-18T00:48:03.073Z,0
2019-03-18T00:49:03.337Z,0
2019-03-18T00:50:03.358Z,0
2019-03-18T00:51:03.113Z,0
2019-03-18T00:52:03.387Z,0
2019-03-18T00:53:03.155Z,0
2019-03-18T00:54:02.906Z,0
2019-03-18T00:55:03.185Z,0
2019-03-18T00:56:03.194Z,0
2019-03-18T00:57:03.739Z,0
2019-03-18T00:58:02.976Z,0
2019-03-18T00:59:03.517Z,0
2019-03-18T01:00:03.288Z,0
2019-03-18T01:01:03.555Z,0
2019-03-18T01:02:03.057Z,0
2019-03-18T01:03:03.585Z,0
2019-03-18T01:04:03.076Z,0
2019-03-18T01:05:03.626Z,0
2019-03-18T01:06:03.916Z,0
2019-03-18T01:07:03.411Z,0
2019-03-18T01:08:03.681Z,0
2019-03-18T01:09:03.429Z,0
2019-03-18T01:10:03.447Z,0
2019-03-18T01:11:03.472Z,0
2019-03-18T01:12:04.004Z,0
2019-03-18T01:13:04.024Z,0
2019-03-18T01:14:03.253Z,0
2019-03-18T01:15:03.796Z,0
2019-03-18T01:16:03.830Z,0
2019-03-18T01:17:03.586Z,0
2019-03-18T01:18:03.335Z,0
2019-03-18T01:19:04.126Z,0
2019-03-18T01:20:04.194Z,0
2019-03-18T01:21:03.898Z,0
2019-03-18T01:22:03.922Z,0
2019-03-18T01:23:03.935Z,0
2019-03-18T01:24:03.945Z,0
2019-03-18T01:25:03.980Z,0
2019-03-18T01:26:03.825Z,0
2019-03-18T01:27:04.262Z,0
2019-03-18T01:28:04.028Z,0
2019-03-18T01:29:03.792Z,0
2019-03-18T01:30:04.591Z,0
2019-03-18T01:31:03.814Z,0
2019-03-18T01:32:04.621Z,0
2019-03-18T01:33:03.860Z,0
2019-03-18T01:34:03.876Z,0
2019-03-18T01:35:04.404Z,0
2019-03-18T01:36:03.894Z,0
2019-03-18T01:37:03.939Z,0
2019-03-18T01:38:03.933Z,0
2019-03-18T01:39:04.469Z,0
2019-03-18T01:40:04.250Z,0
2019-03-18T01:41:04.515Z,0
2019-03-18T01:42:04.001Z,0
2019-03-18T01:43:03.772Z,0
2019-03-18T01:44:04.044Z,0
2019-03-18T01:45:04.318Z,0
2019-03-18T01:46:04.338Z,0
2019-03-18T01:47:04.349Z,0
2019-03-18T01:48:04.367Z,0
2019-03-18T01:49:04.129Z,0
2019-03-18T01:50:04.144Z,0
2019-03-18T01:51:04.423Z,0
2019-03-18T01:52:04.434Z,0
2019-03-18T01:53:04.453Z,0
2019-03-18T01:54:04.479Z,0
2019-03-18T01:55:04.675Z,0
2019-03-18T01:56:04.506Z,0
2019-03-18T01:57:04.531Z,0
2019-03-18T01:58:04.637Z,0
2019-03-18T01:59:04.304Z,0
2019-03-18T02:00:04.582Z,0
2019-03-18T02:01:04.068Z,0
2019-03-18T02:02:04.885Z,0
2019-03-18T02:03:04.633Z,0
2019-03-18T02:04:04.640Z,0
2019-03-18T02:05:04.666Z,0
2019-03-18T02:06:04.683Z,0
2019-03-18T02:07:04.434Z,0
2019-03-18T02:08:05.005Z,0
2019-03-18T02:09:04.753Z,0
2019-03-18T02:10:05.278Z,0
2019-03-18T02:11:04.776Z,0
2019-03-18T02:12:04.803Z,0
2019-03-18T02:13:04.819Z,0
2019-03-18T02:14:05.236Z,0
2019-03-18T02:15:04.692Z,0
2019-03-18T02:16:04.864Z,0
2019-03-18T02:17:05.403Z,0
2019-03-18T02:18:04.626Z,0
2019-03-18T02:19:04.901Z,0
2019-03-18T02:20:04.687Z,0
2019-03-18T02:21:04.953Z,0
2019-03-18T02:22:04.428Z,0
2019-03-18T02:23:05.243Z,0
2019-03-18T02:24:05.028Z,0
2019-03-18T02:25:05.010Z,0
2019-03-18T02:26:05.023Z,0
2019-03-18T02:27:05.364Z,0
2019-03-18T02:28:04.802Z,0
2019-03-18T02:29:05.180Z,0
2019-03-18T02:30:05.146Z,0
2019-03-18T02:31:05.411Z,0
2019-03-18T02:32:04.907Z,0
2019-03-18T02:33:05.597Z,0
2019-03-18T02:34:05.188Z,0
2019-03-18T02:35:05.460Z,0
2019-03-18T02:36:05.291Z,0
2019-03-18T02:37:04.965Z,0
2019-03-18T02:38:05.249Z,0
2019-03-18T02:39:05.529Z,0
2019-03-18T02:40:05.443Z,0
2019-03-18T02:41:05.023Z,0
2019-03-18T02:42:05.323Z,0
2019-03-18T02:43:05.638Z,0
2019-03-18T02:44:05.348Z,0
2019-03-18T02:45:05.364Z,0
2019-03-18T02:46:19.123Z,0
2019-03-18T02:47:05.688Z,0
2019-03-18T02:48:05.756Z,0
2019-03-18T02:49:05.724Z,0
2019-03-18T02:50:05.208Z,0
2019-03-18T02:51:06.031Z,0
2019-03-18T02:52:05.501Z,0
2019-03-18T02:53:05.530Z,0
2019-03-18T02:54:05.538Z,0
2019-03-18T02:55:05.826Z,0
2019-03-18T02:56:05.284Z,0
2019-03-18T02:57:05.855Z,0
2019-03-18T02:58:05.845Z,0
2019-03-18T02:59:05.085Z,0
2019-03-18T03:00:05.910Z,0
2019-03-18T03:01:05.634Z,0
2019-03-18T03:02:05.382Z,0
2019-03-18T03:03:05.536Z,0
2019-03-18T03:04:05.796Z,0
2019-03-18T03:05:05.975Z,0
2019-03-18T03:06:06.428Z,0
2019-03-18T03:07:05.220Z,0
2019-03-18T03:08:05.506Z,0
2019-03-18T03:09:05.523Z,0
2019-03-18T03:10:05.832Z,0
2019-03-18T03:11:05.545Z,0
2019-03-18T03:12:06.368Z,0
2019-03-18T03:13:05.865Z,0
2019-03-18T03:14:06.003Z,0
2019-03-18T03:15:05.916Z,0
2019-03-18T03:16:05.959Z,0
2019-03-18T03:17:05.682Z,0
2019-03-18T03:18:06.232Z,0
2019-03-18T03:19:06.241Z,0
2019-03-18T03:20:05.984Z,0
2019-03-18T03:21:06.266Z,0
2019-03-18T03:22:06.258Z,0
2019-03-18T03:23:06.064Z,0
2019-03-18T03:24:05.502Z,0
2019-03-18T03:25:05.793Z,0
2019-03-18T03:26:06.329Z,0
2019-03-18T03:27:06.351Z,0
2019-03-18T03:28:05.897Z,0
2019-03-18T03:29:05.577Z,0
2019-03-18T03:30:05.925Z,0
2019-03-18T03:31:06.228Z,0
2019-03-18T03:32:05.717Z,0
2019-03-18T03:33:06.562Z,0
2019-03-18T03:34:12.784Z,0
2019-03-18T03:35:06.622Z,0
2019-03-18T03:36:06.769Z,0
2019-03-18T03:37:06.924Z,0
2019-03-18T03:38:06.546Z,0
2019-03-18T03:39:06.292Z,0
2019-03-18T03:40:06.330Z,0
2019-03-18T03:41:06.082Z,0
2019-03-18T03:42:06.656Z,0
2019-03-18T03:43:06.636Z,0
2019-03-18T03:44:06.378Z,0
2019-03-18T03:45:06.382Z,0
2019-03-18T03:46:06.672Z,0
2019-03-18T03:47:06.182Z,0
2019-03-18T03:48:06.229Z,0
2019-03-18T03:49:05.964Z,0
2019-03-18T03:50:06.486Z,0
2019-03-18T03:51:06.788Z,0
2019-03-18T03:52:06.512Z,0
2019-03-18T03:53:07.062Z,0
2019-03-18T03:54:06.814Z,0
2019-03-18T03:55:07.105Z,0
2019-03-18T03:56:06.870Z,0
2019-03-18T03:57:06.868Z,0
2019-03-18T03:58:06.877Z,0
2019-03-18T03:59:06.907Z,0
2019-03-18T04:00:06.653Z,0
2019-03-18T04:01:06.681Z,0
2019-03-18T04:02:07.335Z,0
2019-03-18T04:03:06.719Z,0
2019-03-18T04:04:06.726Z,0
2019-03-18T04:05:06.745Z,0
2019-03-18T04:06:07.140Z,0
2019-03-18T04:07:07.170Z,0
2019-03-18T04:08:06.539Z,0
2019-03-18T04:09:07.135Z,0
2019-03-18T04:10:07.449Z,0
2019-03-18T04:11:10.544Z,0
2019-03-18T04:12:06.880Z,0
2019-03-18T04:13:07.168Z,0
2019-03-18T04:14:06.891Z,0
2019-03-18T04:15:07.562Z,0
2019-03-18T04:16:07.176Z,0
2019-03-18T04:17:11.915Z,0
2019-03-18T04:18:06.963Z,0
2019-03-18T04:19:06.980Z,0
2019-03-18T04:20:07.278Z,0
2019-03-18T04:21:07.015Z,0
2019-03-18T04:22:07.576Z,0
2019-03-18T04:23:07.333Z,0
2019-03-18T04:24:07.598Z,0
2019-03-18T04:25:06.996Z,0
2019-03-18T04:26:07.139Z,0
2019-03-18T04:27:06.869Z,0
2019-03-18T04:28:07.134Z,0
2019-03-18T04:29:07.160Z,0
2019-03-18T04:30:07.521Z,0
2019-03-18T04:31:07.194Z,0
2019-03-18T04:32:07.225Z,0
2019-03-18T04:33:07.491Z,0
2019-03-18T04:34:07.756Z,0
2019-03-18T04:35:07.617Z,0
2019-03-18T04:36:07.274Z,0
2019-03-18T04:37:07.544Z,0
2019-03-18T04:38:07.565Z,0
2019-03-18T04:39:07.606Z,0
2019-03-18T04:40:07.093Z,0
2019-03-18T04:41:07.083Z,0
2019-03-18T04:42:07.648Z,0
2019-03-18T04:43:06.898Z,0
2019-03-18T04:44:07.134Z,0
2019-03-18T04:45:08.003Z,0
2019-03-18T04:46:07.169Z,0
2019-03-18T04:47:20.540Z,0
2019-03-18T04:48:07.732Z,0
2019-03-18T04:49:07.480Z,0
2019-03-18T04:50:07.503Z,0
2019-03-18T04:51:07.520Z,0
2019-03-18T04:52:07.568Z,0
2019-03-18T04:53:07.566Z,0
2019-03-18T04:54:07.073Z,0
2019-03-18T04:55:07.322Z,0
2019-03-18T04:56:07.362Z,0
2019-03-18T04:57:07.622Z,0
2019-03-18T04:58:07.109Z,0
2019-03-18T04:59:07.647Z,0
2019-03-18T05:00:07.403Z,0
2019-03-18T05:01:08.215Z,0
2019-03-18T05:02:07.452Z,0
2019-03-18T05:03:07.983Z,0
2019-03-18T05:04:07.483Z,0
2019-03-18T05:05:07.501Z,0
2019-03-18T05:06:07.791Z,0
2019-03-18T05:07:07.541Z,0
2019-03-18T05:08:07.548Z,0
2019-03-18T05:09:07.831Z,0
2019-03-18T05:10:07.602Z,0
2019-03-18T05:11:07.602Z,0
2019-03-18T05:12:07.878Z,0
2019-03-18T05:13:07.890Z,0
2019-03-18T05:14:07.938Z,0
2019-03-18T05:15:08.197Z,0
2019-03-18T05:16:07.975Z,0
2019-03-18T05:17:07.959Z,0
2019-03-18T05:18:08.251Z,0
2019-03-18T05:19:08.002Z,0
2019-03-18T05:20:08.281Z,0
2019-03-18T05:21:08.304Z,0
2019-03-18T05:22:07.798Z,0
2019-03-18T05:23:07.809Z,0
2019-03-18T05:24:08.083Z,0
2019-03-18T05:25:08.100Z,0
2019-03-18T05:26:08.388Z,0
2019-03-18T05:27:08.134Z,0
2019-03-18T05:28:07.886Z,0
2019-03-18T05:29:08.450Z,0
2019-03-18T05:30:07.921Z,0
2019-03-18T05:31:07.949Z,0
2019-03-18T05:32:10.040Z,0
2019-03-18T05:33:08.238Z,0
2019-03-18T05:34:08.260Z,0
2019-03-18T05:35:08.857Z,0
2019-03-18T05:36:08.562Z,0
2019-03-18T05:37:08.338Z,0
2019-03-18T05:38:08.888Z,0
2019-03-18T05:39:08.358Z,0
2019-03-18T05:40:08.367Z,0
2019-03-18T05:41:08.654Z,0
2019-03-18T05:42:08.127Z,0
2019-03-18T05:43:08.414Z,0
2019-03-18T05:44:10.298Z,0
2019-03-18T05:45:08.440Z,0
2019-03-18T05:46:07.946Z,0
2019-03-18T05:47:08.740Z,0
2019-03-18T05:48:08.763Z,0
2019-03-18T05:49:08.514Z,0
2019-03-18T05:50:08.548Z,0
2019-03-18T05:51:08.808Z,0
2019-03-18T05:52:08.314Z,0
2019-03-18T05:53:08.600Z,0
2019-03-18T05:54:08.614Z,0
2019-03-18T05:55:08.907Z,0
2019-03-18T05:56:08.369Z,0
2019-03-18T05:57:08.392Z,0
2019-03-18T05:58:08.416Z,0
2019-03-18T05:59:08.425Z,0
2019-03-18T06:00:08.988Z,5
2019-03-18T06:01:08.718Z,0
2019-03-18T06:02:08.476Z,0
2019-03-18T06:03:08.760Z,0
2019-03-18T06:04:08.813Z,0
2019-03-18T06:05:08.791Z,5
2019-03-18T06:06:08.282Z,5
2019-03-18T06:07:09.091Z,5
2019-03-18T06:08:11.453Z,5
2019-03-18T06:09:08.869Z,10
2019-03-18T06:10:09.162Z,10
2019-03-18T06:11:08.894Z,10
2019-03-18T06:12:08.909Z,10
2019-03-18T06:13:09.504Z,10
2019-03-18T06:14:09.212Z,10
2019-03-18T06:15:08.987Z,10
2019-03-18T06:16:09.246Z,10
2019-03-18T06:17:08.998Z,10
2019-03-18T06:18:09.282Z,10
2019-03-18T06:19:09.589Z,10
2019-03-18T06:20:09.050Z,10
2019-03-18T06:21:08.808Z,10
2019-03-18T06:22:09.096Z,10
2019-03-18T06:23:09.367Z,10
2019-03-18T06:24:11.345Z,10
2019-03-18T06:25:08.896Z,15
2019-03-18T06:26:09.435Z,15
2019-03-18T06:27:08.649Z,15
2019-03-18T06:28:09.195Z,10
2019-03-18T06:29:09.201Z,5
2019-03-18T06:30:09.431Z,5
2019-03-18T06:31:09.529Z,10
2019-03-18T06:32:09.258Z,10
2019-03-18T06:33:09.807Z,10
2019-03-18T06:34:09.032Z,10
2019-03-18T06:35:09.767Z,10
2019-03-18T06:36:09.412Z,10
2019-03-18T06:37:09.344Z,10
2019-03-18T06:38:09.104Z,15
2019-03-18T06:39:09.534Z,15
2019-03-18T06:40:10.085Z,10
2019-03-18T06:41:09.940Z,10
2019-03-18T06:42:09.164Z,10
2019-03-18T06:43:09.487Z,5
2019-03-18T06:44:09.535Z,5
2019-03-18T06:45:09.787Z,5
2019-03-18T06:46:09.242Z,10
2019-03-18T06:47:09.271Z,10
2019-03-18T06:48:16.029Z,10
2019-03-18T06:49:09.291Z,10
2019-03-18T06:50:09.690Z,5
2019-03-18T06:51:09.329Z,10
2019-03-18T06:52:09.345Z,5
2019-03-18T06:53:09.626Z,5
2019-03-18T06:54:09.724Z,10
2019-03-18T06:55:09.400Z,10
2019-03-18T06:56:09.937Z,15
2019-03-18T06:57:09.739Z,15
2019-03-18T06:58:09.451Z,20
2019-03-18T06:59:09.790Z,25
2019-03-18T07:00:11.390Z,25
2019-03-18T07:01:10.026Z,15
2019-03-18T07:02:09.776Z,20
2019-03-18T07:03:09.532Z,20
2019-03-18T07:04:09.825Z,25
2019-03-18T07:05:10.101Z,25
2019-03-18T07:06:10.114Z,20
2019-03-18T07:07:09.342Z,20
2019-03-18T07:08:09.617Z,20
2019-03-18T07:09:09.642Z,25
2019-03-18T07:10:09.931Z,20
2019-03-18T07:11:09.940Z,15
2019-03-18T07:12:10.212Z,20
2019-03-18T07:13:09.976Z,25
2019-03-18T07:14:09.730Z,30
2019-03-18T07:15:10.013Z,25
2019-03-18T07:16:09.502Z,20
2019-03-18T07:17:09.777Z,20
2019-03-18T07:18:22.531Z,15
2019-03-18T07:19:10.086Z,15
2019-03-18T07:20:09.846Z,20
2019-03-18T07:21:10.375Z,20
2019-03-18T07:22:10.393Z,25
2019-03-18T07:23:10.167Z,35
2019-03-18T07:24:09.898Z,40
2019-03-18T07:25:10.728Z,30
2019-03-18T07:26:10.202Z,30
2019-03-18T07:27:09.697Z,30
2019-03-18T07:28:10.759Z,30
2019-03-18T07:29:10.261Z,30
2019-03-18T07:30:10.056Z,30
2019-03-18T07:31:10.039Z,30
2019-03-18T07:32:10.308Z,25
2019-03-18T07:33:10.402Z,25
2019-03-18T07:34:10.345Z,15
2019-03-18T07:35:09.832Z,10
2019-03-18T07:36:10.113Z,10
2019-03-18T07:37:10.397Z,10
2019-03-18T07:38:10.415Z,10
2019-03-18T07:39:10.427Z,10
2019-03-18T07:40:13.355Z,10
2019-03-18T07:41:10.738Z,10
2019-03-18T07:42:10.756Z,10
2019-03-18T07:43:10.227Z,20
2019-03-18T07:44:10.513Z,20
2019-03-18T07:45:10.796Z,15
2019-03-18T07:46:10.288Z,20
2019-03-18T07:47:10.298Z,15
2019-03-18T07:48:12.525Z,20
2019-03-18T07:49:10.350Z,25
2019-03-18T07:50:10.371Z,25
2019-03-18T07:51:10.636Z,25
2019-03-18T07:52:10.911Z,45
2019-03-18T07:53:10.456Z,30
2019-03-18T07:54:10.472Z,40
2019-03-18T07:55:10.728Z,40
2019-03-18T07:56:10.454Z,45
2019-03-18T07:57:10.751Z,40
2019-03-18T07:58:10.522Z,40
2019-03-18T07:59:10.776Z,45
2019-03-18T08:00:10.531Z,35
2019-03-18T08:01:11.156Z,50
2019-03-18T08:02:10.935Z,40
2019-03-18T08:03:12.463Z,55
2019-03-18T08:04:10.601Z,45
2019-03-18T08:05:10.886Z,50
2019-03-18T08:06:10.901Z,40
2019-03-18T08:07:11.450Z,25
2019-03-18T08:08:11.205Z,15
2019-03-18T08:09:10.706Z,15
2019-03-18T08:10:11.240Z,25
2019-03-18T08:11:11.304Z,15
2019-03-18T08:12:11.541Z,10
2019-03-18T08:13:11.032Z,10
2019-03-18T08:14:10.803Z,10
2019-03-18T08:15:11.611Z,20
2019-03-18T08:16:10.815Z,20
2019-03-18T08:17:11.094Z,25
2019-03-18T08:18:11.111Z,30
2019-03-18T08:19:10.864Z,40
2019-03-18T08:20:12.872Z,45
2019-03-18T08:21:11.442Z,35
2019-03-18T08:22:11.200Z,35
2019-03-18T08:23:11.467Z,45
2019-03-18T08:24:10.961Z,45
2019-03-18T08:25:11.239Z,45
2019-03-18T08:26:11.519Z,45
2019-03-18T08:27:11.276Z,55
2019-03-18T08:28:11.290Z,60
2019-03-18T08:29:11.049Z,55
2019-03-18T08:30:11.082Z,55
2019-03-18T08:31:11.612Z,70
2019-03-18T08:32:14.021Z,55
2019-03-18T08:33:11.375Z,30
2019-03-18T08:34:11.666Z,35
2019-03-18T08:35:11.676Z,60
2019-03-18T08:36:11.192Z,50
2019-03-18T08:37:11.185Z,30
2019-03-18T08:38:10.951Z,35
2019-03-18T08:39:11.744Z,30
2019-03-18T08:40:11.522Z,25
2019-03-18T08:41:11.249Z,25
2019-03-18T08:42:11.546Z,25
2019-03-18T08:43:11.041Z,25
2019-03-18T08:44:11.575Z,20
2019-03-18T08:45:11.597Z,35
2019-03-18T08:46:11.417Z,35
2019-03-18T08:47:11.623Z,30
2019-03-18T08:48:11.212Z,40
2019-03-18T08:49:11.928Z,50
2019-03-18T08:50:14.692Z,45
2019-03-18T08:51:11.428Z,40
2019-03-18T08:52:11.447Z,35
2019-03-18T08:53:12.250Z,35
2019-03-18T08:54:11.488Z,40
2019-03-18T08:55:11.769Z,45
2019-03-18T08:56:11.540Z,40
2019-03-18T08:57:11.805Z,35
2019-03-18T08:58:12.085Z,25
2019-03-18T08:59:11.569Z,30
2019-03-18T09:00:12.007Z,60
2019-03-18T09:01:11.358Z,70
2019-03-18T09:02:11.716Z,60
2019-03-18T09:03:11.989Z,35
2019-03-18T09:04:11.927Z,50
2019-03-18T09:05:11.958Z,50
2019-03-18T09:06:11.530Z,35
2019-03-18T09:07:11.722Z,35
2019-03-18T09:08:11.472Z,30
2019-03-18T09:09:11.756Z,35
2019-03-18T09:10:11.765Z,45
2019-03-18T09:11:11.786Z,55
2019-03-18T09:12:12.071Z,45
2019-03-18T09:13:11.826Z,45
2019-03-18T09:14:11.843Z,55
2019-03-18T09:15:11.874Z,65
2019-03-18T09:16:12.403Z,55
2019-03-18T09:17:11.892Z,60
2019-03-18T09:18:12.189Z,50
2019-03-18T09:19:17.979Z,50
2019-03-18T09:20:12.732Z,55
2019-03-18T09:21:12.224Z,50
2019-03-18T09:22:11.978Z,60
2019-03-18T09:23:12.041Z,55
2019-03-18T09:24:12.020Z,50
2019-03-18T09:25:12.031Z,55
2019-03-18T09:26:11.795Z,70
2019-03-18T09:27:12.595Z,55
2019-03-18T09:28:12.106Z,60
2019-03-18T09:29:11.852Z,85
2019-03-18T09:30:11.870Z,60
2019-03-18T09:31:13.040Z,65
2019-03-18T09:32:12.429Z,90
2019-03-18T09:33:12.187Z,95
2019-03-18T09:34:12.197Z,60
2019-03-18T09:35:12.492Z,60
2019-03-18T09:36:12.500Z,55
2019-03-18T09:37:12.246Z,65
2019-03-18T09:38:12.271Z,80
2019-03-18T09:39:12.553Z,80
2019-03-18T09:40:12.669Z,75
2019-03-18T09:41:12.587Z,65
2019-03-18T09:42:12.865Z,45
2019-03-18T09:43:12.698Z,50
2019-03-18T09:44:12.375Z,30
2019-03-18T09:45:12.659Z,55
2019-03-18T09:46:12.149Z,70
2019-03-18T09:47:12.699Z,55
2019-03-18T09:48:12.455Z,55
2019-03-18T09:49:25.266Z,45
2019-03-18T09:50:12.745Z,40
2019-03-18T09:51:14.111Z,55
2019-03-18T09:52:12.788Z,80
2019-03-18T09:53:12.812Z,60
2019-03-18T09:54:13.085Z,55
2019-03-18T09:55:12.323Z,65
2019-03-18T09:56:12.596Z,70
2019-03-18T09:57:24.970Z,70
2019-03-18T09:58:12.628Z,70
2019-03-18T09:59:12.650Z,80
2019-03-18T10:00:14.739Z,65
2019-03-18T10:01:12.702Z,70
2019-03-18T10:02:12.962Z,80
2019-03-18T10:03:12.717Z,65
2019-03-18T10:04:13.013Z,60
2019-03-18T10:05:13.020Z,70
2019-03-18T10:06:13.048Z,65
2019-03-18T10:07:13.059Z,70
2019-03-18T10:08:13.083Z,100
2019-03-18T10:09:13.106Z,85
2019-03-18T10:10:13.113Z,75
2019-03-18T10:11:13.131Z,85
2019-03-18T10:12:12.898Z,70
2019-03-18T10:13:12.641Z,75
2019-03-18T10:14:13.181Z,85
2019-03-18T10:15:12.949Z,95
2019-03-18T10:16:13.223Z,75
2019-03-18T10:17:18.710Z,75
2019-03-18T10:18:13.272Z,65
2019-03-18T10:19:13.274Z,75
2019-03-18T10:20:13.301Z,80
2019-03-18T10:21:13.330Z,70
2019-03-18T10:22:13.080Z,70
2019-03-18T10:23:13.356Z,70
2019-03-18T10:24:13.377Z,70
2019-03-18T10:25:13.490Z,75
2019-03-18T10:26:13.676Z,80
2019-03-18T10:27:13.172Z,65
2019-03-18T10:28:16.286Z,75
2019-03-18T10:29:13.201Z,70
2019-03-18T10:30:13.222Z,80
2019-03-18T10:31:13.495Z,70
2019-03-18T10:32:13.250Z,50
2019-03-18T10:33:13.845Z,40
2019-03-18T10:34:13.695Z,50
2019-03-18T10:35:13.329Z,55
2019-03-18T10:36:13.083Z,60
2019-03-18T10:37:13.351Z,70
2019-03-18T10:38:13.898Z,75
2019-03-18T10:39:13.378Z,75
2019-03-18T10:40:13.151Z,75
2019-03-18T10:41:13.840Z,70
2019-03-18T10:42:13.718Z,60
2019-03-18T10:43:13.471Z,50
2019-03-18T10:44:13.742Z,55
2019-03-18T10:45:13.513Z,75
2019-03-18T10:46:13.782Z,80
2019-03-18T10:47:13.535Z,60
2019-03-18T10:48:14.080Z,55
2019-03-18T10:49:13.833Z,55
2019-03-18T10:50:14.110Z,80
2019-03-18T10:51:13.867Z,80
2019-03-18T10:52:13.678Z,75
2019-03-18T10:53:13.923Z,75
2019-03-18T10:54:14.031Z,65
2019-03-18T10:55:13.797Z,75
2019-03-18T10:56:17.368Z,60
2019-03-18T10:57:13.774Z,65
2019-03-18T10:58:14.024Z,80
2019-03-18T10:59:13.496Z,105
2019-03-18T11:00:14.037Z,105
2019-03-18T11:01:13.682Z,85
2019-03-18T11:02:14.074Z,90
2019-03-18T11:03:13.835Z,100
2019-03-18T11:04:13.584Z,110
2019-03-18T11:05:17.233Z,100
2019-03-18T11:06:14.149Z,85
2019-03-18T11:07:13.653Z,80
2019-03-18T11:08:14.191Z,65
2019-03-18T11:09:14.467Z,50
2019-03-18T11:10:17.251Z,40
2019-03-18T11:11:14.237Z,40
2019-03-18T11:12:14.059Z,50
2019-03-18T11:13:14.016Z,55
2019-03-18T11:14:14.290Z,50
2019-03-18T11:15:14.579Z,50
2019-03-18T11:16:14.598Z,50
2019-03-18T11:17:14.365Z,30
2019-03-18T11:18:14.372Z,30
2019-03-18T11:19:14.209Z,30
2019-03-18T11:20:14.155Z,40
2019-03-18T11:21:13.920Z,55
2019-03-18T11:22:14.454Z,45
2019-03-18T11:23:14.207Z,40
2019-03-18T11:24:14.754Z,60
2019-03-18T11:25:14.526Z,75
2019-03-18T11:26:14.524Z,90
2019-03-18T11:27:14.031Z,105
2019-03-18T11:28:14.819Z,95
2019-03-18T11:29:15.484Z,105
2019-03-18T11:30:14.603Z,90
2019-03-18T11:31:14.621Z,90
2019-03-18T11:32:14.631Z,75
2019-03-18T11:33:14.646Z,65
2019-03-18T11:34:14.685Z,60
2019-03-18T11:35:14.995Z,65
2019-03-18T11:36:14.445Z,80
2019-03-18T11:37:15.000Z,105
2019-03-18T11:38:14.481Z,100
2019-03-18T11:39:14.765Z,90
2019-03-18T11:40:14.616Z,85
2019-03-18T11:41:17.436Z,85
2019-03-18T11:42:15.110Z,80
2019-03-18T11:43:14.596Z,75
2019-03-18T11:44:14.909Z,105
2019-03-18T11:45:17.099Z,115
2019-03-18T11:46:14.909Z,105
2019-03-18T11:47:15.181Z,85
2019-03-18T11:48:14.946Z,65
2019-03-18T11:49:15.270Z,65
2019-03-18T11:50:20.145Z,75
2019-03-18T11:51:14.998Z,75
2019-03-18T11:52:14.752Z,70
2019-03-18T11:53:23.720Z,70
2019-03-18T11:54:15.298Z,65
2019-03-18T11:55:15.074Z,75
2019-03-18T11:56:14.712Z,105
2019-03-18T11:57:14.612Z,120
2019-03-18T11:58:15.177Z,100
2019-03-18T11:59:14.876Z,95
2019-03-18T12:00:15.247Z,80
2019-03-18T12:01:14.928Z,55
2019-03-18T12:02:26.883Z,40
2019-03-18T12:03:14.961Z,30
2019-03-18T12:04:15.233Z,25
2019-03-18T12:05:15.262Z,25
2019-03-18T12:06:15.012Z,25
2019-03-18T12:07:15.557Z,20
2019-03-18T12:08:15.575Z,20
2019-03-18T12:09:15.594Z,20
2019-03-18T12:10:15.172Z,20
2019-03-18T12:11:15.441Z,20
2019-03-18T12:12:17.996Z,20
2019-03-18T12:13:15.674Z,20
2019-03-18T12:14:15.233Z,20
2019-03-18T12:15:15.453Z,20
2019-03-18T12:16:15.543Z,20
2019-03-18T12:17:15.479Z,25
2019-03-18T12:18:15.258Z,20
2019-03-18T12:19:15.580Z,20
2019-03-18T12:20:28.559Z,20
2019-03-18T12:21:18.539Z,20
2019-03-18T12:22:15.313Z,20
2019-03-18T12:23:15.080Z,15
2019-03-18T12:24:15.975Z,15
2019-03-18T12:25:15.636Z,20
2019-03-18T12:26:15.931Z,20
2019-03-18T12:27:15.676Z,15
2019-03-18T12:28:15.705Z,15
2019-03-18T12:29:16.239Z,15
2019-03-18T12:30:15.461Z,10
2019-03-18T12:31:16.102Z,10
2019-03-18T12:32:15.779Z,10
2019-03-18T12:33:15.530Z,15
2019-03-18T12:34:15.819Z,20
2019-03-18T12:35:15.576Z,20
2019-03-18T12:36:15.830Z,20
2019-03-18T12:37:15.621Z,20
2019-03-18T12:38:16.157Z,20
2019-03-18T12:39:16.192Z,35
2019-03-18T12:40:16.185Z,50
2019-03-18T12:41:15.938Z,60
2019-03-18T12:42:16.236Z,60
2019-03-18T12:43:15.974Z,55
2019-03-18T12:44:15.994Z,60
2019-03-18T12:45:18.130Z,50
2019-03-18T12:46:16.342Z,50
2019-03-18T12:47:15.784Z,60
2019-03-18T12:48:16.061Z,55
2019-03-18T12:49:16.352Z,55
2019-03-18T12:50:16.103Z,55
2019-03-18T12:51:16.143Z,40
2019-03-18T12:52:15.876Z,25
2019-03-18T12:53:16.426Z,30
2019-03-18T12:54:15.918Z,45
2019-03-18T12:55:16.198Z,45
2019-03-18T12:56:16.498Z,35
2019-03-18T12:57:16.004Z,20
2019-03-18T12:58:16.266Z,15
2019-03-18T12:59:15.757Z,15
2019-03-18T13:00:16.042Z,15
2019-03-18T13:01:21.513Z,10
2019-03-18T13:02:16.587Z,10
2019-03-18T13:03:16.082Z,10
2019-03-18T13:04:16.895Z,15
2019-03-18T13:05:15.863Z,15
2019-03-18T13:06:16.670Z,20
2019-03-18T13:07:16.257Z,20
2019-03-18T13:08:16.445Z,25
2019-03-18T13:09:16.461Z,45
2019-03-18T13:10:16.323Z,65
2019-03-18T13:11:17.018Z,75
2019-03-18T13:12:17.697Z,80
2019-03-18T13:13:16.541Z,75
2019-03-18T13:14:16.549Z,85
2019-03-18T13:15:16.839Z,105
2019-03-18T13:16:18.145Z,130
2019-03-18T13:17:16.618Z,135
2019-03-18T13:18:16.887Z,120
2019-03-18T13:19:16.645Z,100
2019-03-18T13:20:16.675Z,90
2019-03-18T13:21:17.848Z,90
2019-03-18T13:22:16.453Z,80
2019-03-18T13:23:16.464Z,80
2019-03-18T13:24:16.740Z,95
2019-03-18T13:25:16.246Z,110
2019-03-18T13:26:16.520Z,110
2019-03-18T13:27:17.138Z,100
2019-03-18T13:28:16.823Z,95
2019-03-18T13:29:16.840Z,75
2019-03-18T13:30:19.933Z,75
2019-03-18T13:31:16.342Z,75
2019-03-18T13:32:16.915Z,90
2019-03-18T13:33:16.649Z,110
2019-03-18T13:34:17.195Z,115
2019-03-18T13:35:16.425Z,115
2019-03-18T13:36:16.713Z,130
2019-03-18T13:37:16.987Z,120
2019-03-18T13:38:17.274Z,110
2019-03-18T13:39:16.515Z,115
2019-03-18T13:40:16.782Z,135
2019-03-18T13:41:16.797Z,110
2019-03-18T13:42:17.345Z,105
2019-03-18T13:43:17.094Z,95
2019-03-18T13:44:17.130Z,100
2019-03-18T13:45:17.429Z,110
2019-03-18T13:46:18.629Z,125
2019-03-18T13:47:17.181Z,125
2019-03-18T13:48:16.946Z,110
2019-03-18T13:49:18.493Z,115
2019-03-18T13:50:16.975Z,115
2019-03-18T13:51:29.235Z,90
2019-03-18T13:52:16.755Z,95
2019-03-18T13:53:17.825Z,80
2019-03-18T13:54:17.307Z,100
2019-03-18T13:55:17.071Z,115
2019-03-18T13:56:17.088Z,110
2019-03-18T13:57:16.857Z,115
2019-03-18T13:58:16.862Z,110
2019-03-18T13:59:17.166Z,95
2019-03-18T14:00:16.906Z,90
2019-03-18T14:01:17.522Z,95
2019-03-18T14:02:17.204Z,125
2019-03-18T14:03:17.219Z,110
2019-03-18T14:04:17.765Z,95
2019-03-18T14:05:17.531Z,85
2019-03-18T14:06:17.548Z,65
2019-03-18T14:07:17.561Z,80
2019-03-18T14:08:17.582Z,100
2019-03-18T14:09:17.088Z,75
2019-03-18T14:10:17.355Z,80
2019-03-18T14:11:17.646Z,115
2019-03-18T14:12:17.662Z,120
2019-03-18T14:13:17.945Z,135
2019-03-18T14:14:17.431Z,125
2019-03-18T14:15:18.000Z,105
2019-03-18T14:16:17.473Z,105
2019-03-18T14:17:17.549Z,105
2019-03-18T14:18:18.046Z,80
2019-03-18T14:19:17.528Z,80
2019-03-18T14:20:17.548Z,85
2019-03-18T14:21:17.837Z,65
2019-03-18T14:22:17.589Z,60
2019-03-18T14:23:18.136Z,50
2019-03-18T14:24:17.627Z,60
2019-03-18T14:25:17.912Z,80
2019-03-18T14:26:18.193Z,75
2019-03-18T14:27:17.424Z,70